createdAt,value
2019-01-08T00:01:49.699Z,5.60
2019-01-08T00:04:19.743Z,5.60
2019-01-08T00:06:52.006Z,5.40
2019-01-08T00:09:21.622Z,5.40
2019-01-08T00:11:51.050Z,5.30
2019-01-08T00:14:21.390Z,5.20
2019-01-08T00:16:51.715Z,5.20
2019-01-08T00:19:21.662Z,5.10
2019-01-08T00:21:51.438Z,5.10
2019-01-08T00:24:21.201Z,5.00
2019-01-08T00:26:51.128Z,4.90
2019-01-08T00:29:21.703Z,4.80
2019-01-08T00:31:52.134Z,4.80
2019-01-08T00:34:22.858Z,4.70
2019-01-08T00:36:52.233Z,4.60
2019-01-08T00:39:21.497Z,4.50
2019-01-08T00:41:52.974Z,4.50
2019-01-08T00:44:22.576Z,4.30
2019-01-08T00:46:52.452Z,4.20
2019-01-08T00:49:21.956Z,4.20
2019-01-08T00:51:52.543Z,4.10
2019-01-08T00:54:22.538Z,4.00
2019-01-08T00:56:55.168Z,3.90
2019-01-08T00:59:24.805Z,3.90
2019-01-08T01:01:54.400Z,3.80
2019-01-08T01:04:23.851Z,3.80
2019-01-08T01:06:53.165Z,3.70
2019-01-08T01:09:23.276Z,3.70
2019-01-08T01:11:53.735Z,3.60
2019-01-08T01:14:25.310Z,3.60
2019-01-08T01:16:55.984Z,3.50
2019-01-08T01:19:25.451Z,3.50
2019-01-08T01:21:56.311Z,3.50
2019-01-08T01:24:26.689Z,3.30
2019-01-08T01:27:12.613Z,3.40
2019-01-08T01:29:43.204Z,3.40
2019-01-08T01:32:12.858Z,3.30
2019-01-08T01:34:42.724Z,3.30
2019-01-08T01:37:13.913Z,3.20
2019-01-08T01:39:46.246Z,3.20
2019-01-08T01:42:16.434Z,3.20
2019-01-08T01:44:45.997Z,3.10
2019-01-08T01:47:16.535Z,3.10
2019-01-08T01:49:48.969Z,3.00
2019-01-08T01:52:19.524Z,3.00
2019-01-08T01:54:50.975Z,3.00
2019-01-08T01:57:20.498Z,3.00
2019-01-08T01:59:50.427Z,2.90
2019-01-08T02:02:19.979Z,2.90
2019-01-08T02:04:49.905Z,2.80
2019-01-08T02:07:19.606Z,2.80
2019-01-08T02:09:49.085Z,2.80
2019-01-08T02:12:18.572Z,2.70
2019-01-08T02:14:48.356Z,2.70
2019-01-08T02:17:18.033Z,2.70
2019-01-08T02:19:47.633Z,2.70
2019-01-08T02:22:17.205Z,2.60
2019-01-08T02:24:46.661Z,2.60
2019-01-08T02:27:16.414Z,2.60
2019-01-08T02:29:46.351Z,2.60
2019-01-08T02:32:16.117Z,2.60
2019-01-08T02:34:45.820Z,2.50
2019-01-08T02:37:17.250Z,2.50
2019-01-08T02:39:49.397Z,2.40
2019-01-08T02:42:19.541Z,2.40
2019-01-08T02:44:49.233Z,2.40
2019-01-08T02:47:19.389Z,2.40
2019-01-08T02:49:50.043Z,2.40
2019-01-08T02:52:19.805Z,2.30
2019-01-08T02:54:49.274Z,2.40
2019-01-08T02:57:19.591Z,2.30
2019-01-08T02:59:49.448Z,2.30
2019-01-08T03:02:18.807Z,2.30
2019-01-08T03:04:48.181Z,2.20
2019-01-08T03:07:18.011Z,2.20
2019-01-08T03:09:48.758Z,2.20
2019-01-08T03:12:18.501Z,2.10
2019-01-08T03:14:49.172Z,2.10
2019-01-08T03:17:18.974Z,2.10
2019-01-08T03:19:48.593Z,2.10
2019-01-08T03:22:18.131Z,2.10
2019-01-08T03:24:47.639Z,2.00
2019-01-08T03:27:17.115Z,2.00
2019-01-08T03:29:46.605Z,2.00
2019-01-08T03:32:16.115Z,2.00
2019-01-08T03:34:46.191Z,2.00
2019-01-08T03:37:15.524Z,1.90
2019-01-08T03:39:45.256Z,1.90
2019-01-08T03:42:14.779Z,1.90
2019-01-08T03:44:43.969Z,1.90
2019-01-08T03:47:14.065Z,1.90
2019-01-08T03:49:43.810Z,1.80
2019-01-08T03:52:13.790Z,1.80
2019-01-08T03:54:43.801Z,1.90
2019-01-08T03:57:13.450Z,1.80
2019-01-08T03:59:43.133Z,1.80
2019-01-08T04:02:13.337Z,1.80
2019-01-08T04:04:42.821Z,1.80
2019-01-08T04:07:12.389Z,1.80
2019-01-08T04:09:43.077Z,1.80
2019-01-08T04:12:12.638Z,1.80
2019-01-08T04:14:43.016Z,1.80
2019-01-08T04:17:14.578Z,1.80
2019-01-08T04:19:44.442Z,1.70
2019-01-08T04:22:14.470Z,1.70
2019-01-08T04:24:45.236Z,1.70
2019-01-08T04:27:14.934Z,1.70
2019-01-08T04:29:50.518Z,1.70
2019-01-08T04:32:16.057Z,1.60
2019-01-08T04:34:45.858Z,1.60
2019-01-08T04:37:15.517Z,1.60
2019-01-08T04:39:48.054Z,1.50
2019-01-08T04:42:17.956Z,1.50
2019-01-08T04:44:48.619Z,1.50
2019-01-08T04:47:19.216Z,1.50
2019-01-08T04:49:48.545Z,1.50
2019-01-08T04:52:18.886Z,1.50
2019-01-08T04:54:49.100Z,1.50
2019-01-08T04:57:18.895Z,1.50
2019-01-08T04:59:58.906Z,1.40
2019-01-08T05:05:06.614Z,1.40
2019-01-08T05:07:38.415Z,1.40
2019-01-08T05:10:08.235Z,1.30
2019-01-08T05:12:38.605Z,1.40
2019-01-08T05:15:08.577Z,1.40
2019-01-08T05:17:38.251Z,1.30
2019-01-08T05:20:07.851Z,1.30
2019-01-08T05:22:37.646Z,1.30
2019-01-08T05:25:07.079Z,1.30
2019-01-08T05:27:36.434Z,1.30
2019-01-08T05:30:08.330Z,1.30
2019-01-08T05:32:37.880Z,1.20
2019-01-08T05:35:08.522Z,1.20
2019-01-08T05:37:37.985Z,1.20
2019-01-08T05:40:07.866Z,1.20
2019-01-08T05:42:37.322Z,1.20
2019-01-08T05:45:06.823Z,1.10
2019-01-08T05:47:37.626Z,1.20
2019-01-08T05:50:07.340Z,1.20
2019-01-08T05:52:36.985Z,1.10
2019-01-08T05:55:07.241Z,1.10
2019-01-08T05:57:38.975Z,1.10
2019-01-08T06:00:16.102Z,1.10
2019-01-08T06:02:38.577Z,1.10
2019-01-08T06:05:08.076Z,1.10
2019-01-08T06:07:38.299Z,1.10
2019-01-08T06:10:09.560Z,1.10
2019-01-08T06:12:40.259Z,1.00
2019-01-08T06:15:09.802Z,1.00
2019-01-08T06:17:39.249Z,1.00
2019-01-08T06:20:09.138Z,1.10
2019-01-08T06:22:40.421Z,1.10
2019-01-08T06:25:10.833Z,1.10
2019-01-08T06:27:40.683Z,1.10
2019-01-08T06:30:10.210Z,1.10
2019-01-08T06:32:39.720Z,1.10
2019-01-08T06:35:09.458Z,1.20
2019-01-08T06:37:39.511Z,1.20
2019-01-08T06:40:09.217Z,1.20
2019-01-08T06:42:38.460Z,1.10
2019-01-08T06:45:08.134Z,1.20
2019-01-08T06:47:38.554Z,1.20
2019-01-08T06:50:08.324Z,1.10
2019-01-08T06:52:40.607Z,1.20
2019-01-08T06:55:10.572Z,1.20
2019-01-08T06:57:40.775Z,1.10
2019-01-08T07:00:10.423Z,1.10
2019-01-08T07:02:39.853Z,1.10
2019-01-08T07:05:09.330Z,1.10
2019-01-08T07:07:38.781Z,1.10
2019-01-08T07:10:09.654Z,1.10
2019-01-08T07:12:39.458Z,1.10
2019-01-08T07:15:08.926Z,1.10
2019-01-08T07:17:43.700Z,1.10
2019-01-08T07:20:14.538Z,1.10
2019-01-08T07:22:44.116Z,1.10
2019-01-08T07:25:14.536Z,1.00
2019-01-08T07:27:44.731Z,1.10
2019-01-08T07:30:14.272Z,1.10
2019-01-08T07:32:44.036Z,1.10
2019-01-08T07:35:13.714Z,1.10
2019-01-08T07:37:43.241Z,1.10
2019-01-08T07:40:13.854Z,1.10
2019-01-08T07:42:43.222Z,1.10
2019-01-08T07:45:13.447Z,1.10
2019-01-08T07:47:42.905Z,1.10
2019-01-08T07:50:12.504Z,1.00
2019-01-08T07:52:42.286Z,1.10
2019-01-08T07:55:12.698Z,1.00
2019-01-08T07:57:42.260Z,0.90
2019-01-08T08:00:11.166Z,0.90
2019-01-08T08:02:40.658Z,0.90
2019-01-08T08:05:10.280Z,0.90
2019-01-08T08:07:39.839Z,0.90
2019-01-08T08:10:09.293Z,0.90
2019-01-08T08:12:39.639Z,0.90
2019-01-08T08:15:09.140Z,0.90
2019-01-08T08:17:38.341Z,0.80
2019-01-08T08:20:08.058Z,0.90
2019-01-08T08:22:37.775Z,0.90
2019-01-08T08:25:07.721Z,0.90
2019-01-08T08:27:37.155Z,0.90
2019-01-08T08:30:07.099Z,0.90
2019-01-08T08:32:37.745Z,0.90
2019-01-08T08:35:08.607Z,0.90
2019-01-08T08:37:37.376Z,0.90
2019-01-08T08:40:07.745Z,0.90
2019-01-08T08:42:37.238Z,0.90
2019-01-08T08:45:08.514Z,1.00
2019-01-08T08:47:37.138Z,1.00
2019-01-08T08:50:07.075Z,1.00
2019-01-08T08:52:36.562Z,1.00
2019-01-08T08:55:06.122Z,1.00
2019-01-08T08:57:35.707Z,1.00
2019-01-08T09:00:05.448Z,1.10
2019-01-08T09:02:34.728Z,1.10
2019-01-08T09:05:04.739Z,1.10
2019-01-08T09:07:34.433Z,1.20
2019-01-08T09:10:04.109Z,1.20
2019-01-08T09:12:34.516Z,1.20
2019-01-08T09:15:07.533Z,1.20
2019-01-08T09:17:36.871Z,1.20
2019-01-08T09:20:06.739Z,1.20
2019-01-08T09:22:36.097Z,1.20
2019-01-08T09:25:05.914Z,1.20
2019-01-08T09:27:35.977Z,1.20
2019-01-08T09:30:07.889Z,1.20
2019-01-08T09:32:37.174Z,1.10
2019-01-08T09:35:07.720Z,1.20
2019-01-08T09:37:37.274Z,1.00
2019-01-08T09:40:06.938Z,1.00
2019-01-08T09:42:36.534Z,0.90
2019-01-08T09:45:06.606Z,1.00
2019-01-08T09:47:36.872Z,1.10
2019-01-08T09:50:08.445Z,1.10
2019-01-08T09:52:37.945Z,1.10
2019-01-08T09:55:07.417Z,1.10
2019-01-08T09:57:39.508Z,1.10
2019-01-08T10:00:09.361Z,1.20
2019-01-08T10:02:39.382Z,1.20
2019-01-08T10:05:08.977Z,1.30
2019-01-08T10:07:38.538Z,1.30
2019-01-08T10:10:08.714Z,1.30
2019-01-08T10:12:39.558Z,1.30
2019-01-08T10:15:09.124Z,1.40
2019-01-08T10:17:38.423Z,1.50
2019-01-08T10:20:08.362Z,1.50
2019-01-08T10:22:37.769Z,1.50
2019-01-08T10:25:07.368Z,1.60
2019-01-08T10:27:37.882Z,1.60
2019-01-08T10:30:07.891Z,1.60
2019-01-08T10:32:37.338Z,1.70
2019-01-08T10:35:07.219Z,1.70
2019-01-08T10:37:36.640Z,1.70
2019-01-08T10:40:07.339Z,1.70
2019-01-08T10:42:36.866Z,1.70
2019-01-08T10:45:06.667Z,1.70
2019-01-08T10:47:36.192Z,1.70
2019-01-08T10:50:06.882Z,1.80
2019-01-08T10:52:36.271Z,1.80
2019-01-08T10:55:08.039Z,1.90
2019-01-08T10:57:38.827Z,1.90
2019-01-08T11:00:09.115Z,1.90
2019-01-08T11:02:38.504Z,1.90
2019-01-08T11:05:09.094Z,1.90
2019-01-08T11:07:41.911Z,2.00
2019-01-08T11:10:11.182Z,2.00
2019-01-08T11:12:41.582Z,2.00
2019-01-08T11:15:11.095Z,2.10
2019-01-08T11:17:40.682Z,2.10
2019-01-08T11:20:11.132Z,2.10
2019-01-08T11:22:42.065Z,2.10
2019-01-08T11:25:11.733Z,2.10
2019-01-08T11:27:41.203Z,2.10
2019-01-08T11:30:11.545Z,2.10
2019-01-08T11:32:41.007Z,2.10
2019-01-08T11:35:10.449Z,2.10
2019-01-08T11:37:41.098Z,2.10
2019-01-08T11:40:10.663Z,2.20
2019-01-08T11:42:41.160Z,2.20
2019-01-08T11:45:10.637Z,2.20
2019-01-08T11:47:41.103Z,2.20
2019-01-08T11:50:10.529Z,2.30
2019-01-08T11:52:40.339Z,2.30
2019-01-08T11:55:10.629Z,2.40
2019-01-08T11:57:41.221Z,2.40
2019-01-08T12:00:11.165Z,2.30
2019-01-08T12:02:47.591Z,2.30
2019-01-08T12:05:10.303Z,2.30
2019-01-08T12:07:39.662Z,2.30
2019-01-08T12:10:10.689Z,2.30
2019-01-08T12:12:40.756Z,2.30
2019-01-08T12:15:10.354Z,2.30
2019-01-08T12:17:39.957Z,2.30
2019-01-08T12:20:09.717Z,2.30
2019-01-08T12:22:41.015Z,2.30
2019-01-08T12:25:09.212Z,2.40
2019-01-08T12:27:38.704Z,2.40
2019-01-08T12:30:08.485Z,2.30
2019-01-08T12:32:38.836Z,2.30
2019-01-08T12:35:08.330Z,2.40
2019-01-08T12:37:38.159Z,2.50
2019-01-08T12:40:07.856Z,2.50
2019-01-08T12:42:37.546Z,2.50
2019-01-08T12:45:06.970Z,2.50
2019-01-08T12:47:36.564Z,2.50
2019-01-08T12:50:07.487Z,2.50
2019-01-08T12:52:36.753Z,2.50
2019-01-08T12:55:05.931Z,2.50
2019-01-08T12:57:35.536Z,2.50
2019-01-08T13:00:06.938Z,2.50
2019-01-08T13:02:36.121Z,2.60
2019-01-08T13:05:06.194Z,2.50
2019-01-08T13:07:35.886Z,2.60
2019-01-08T13:10:05.706Z,2.50
2019-01-08T13:12:35.310Z,2.50
2019-01-08T13:15:05.284Z,2.50
2019-01-08T13:17:38.963Z,2.40
2019-01-08T13:20:09.426Z,2.40
2019-01-08T13:22:39.570Z,2.40
2019-01-08T13:25:09.061Z,2.40
2019-01-08T13:27:38.805Z,2.30
2019-01-08T13:30:08.623Z,2.30
2019-01-08T13:32:38.184Z,2.30
2019-01-08T13:35:07.747Z,2.30
2019-01-08T13:37:37.273Z,2.20
2019-01-08T13:40:09.186Z,2.20
2019-01-08T13:42:38.791Z,2.20
2019-01-08T13:45:09.958Z,2.10
2019-01-08T13:47:39.556Z,2.10
2019-01-08T13:50:10.454Z,2.10
2019-01-08T13:52:40.134Z,2.10
2019-01-08T13:55:09.888Z,2.20
2019-01-08T13:57:39.585Z,2.20
2019-01-08T14:00:09.491Z,2.10
2019-01-08T14:02:39.020Z,2.00
2019-01-08T14:05:09.282Z,2.00
2019-01-08T14:07:38.709Z,2.10
2019-01-08T14:10:08.782Z,2.20
2019-01-08T14:12:38.289Z,2.20
2019-01-08T14:15:08.189Z,2.20
2019-01-08T14:17:38.611Z,2.20
2019-01-08T14:20:09.105Z,2.10
2019-01-08T14:22:38.852Z,2.10
2019-01-08T14:25:08.494Z,2.10
2019-01-08T14:27:38.248Z,2.20
2019-01-08T14:30:08.339Z,2.20
2019-01-08T14:32:40.695Z,2.30
2019-01-08T14:35:07.726Z,2.30
2019-01-08T14:37:38.612Z,2.30
2019-01-08T14:40:08.684Z,2.50
2019-01-08T14:42:38.371Z,2.50
2019-01-08T14:45:07.995Z,2.50
2019-01-08T14:47:37.369Z,2.50
2019-01-08T14:50:09.124Z,2.60
2019-01-08T14:52:40.767Z,2.70
2019-01-08T14:55:10.146Z,2.70
2019-01-08T14:57:39.683Z,2.70
2019-01-08T15:00:10.299Z,2.70
2019-01-08T15:02:49.196Z,2.70
2019-01-08T15:05:10.633Z,2.70
2019-01-08T15:07:40.068Z,2.70
2019-01-08T15:10:10.282Z,2.70
2019-01-08T15:12:39.484Z,2.70
2019-01-08T15:15:08.886Z,2.70
2019-01-08T15:17:39.493Z,2.70
2019-01-08T15:20:08.650Z,2.70
2019-01-08T15:22:38.328Z,2.80
2019-01-08T15:25:07.829Z,2.80
2019-01-08T15:27:41.150Z,2.90
2019-01-08T15:30:10.944Z,2.90
2019-01-08T15:32:40.873Z,2.90
2019-01-08T15:35:10.582Z,2.90
2019-01-08T15:37:39.865Z,3.00
2019-01-08T15:40:09.424Z,2.90
2019-01-08T15:42:39.682Z,2.90
2019-01-08T15:45:11.744Z,2.90
2019-01-08T15:47:42.633Z,2.90
2019-01-08T15:50:12.015Z,2.90
2019-01-08T15:52:42.249Z,3.00
2019-01-08T15:55:11.357Z,3.00
2019-01-08T15:57:41.326Z,3.00
2019-01-08T16:00:11.312Z,3.10
2019-01-08T16:02:40.869Z,3.10
2019-01-08T16:05:10.204Z,3.20
2019-01-08T16:07:40.094Z,3.30
2019-01-08T16:10:09.846Z,3.40
2019-01-08T16:12:39.564Z,3.40
2019-01-08T16:15:09.064Z,3.40
2019-01-08T16:17:39.143Z,3.50
2019-01-08T16:20:09.249Z,3.50
2019-01-08T16:22:39.589Z,3.50
2019-01-08T16:25:09.029Z,3.30
2019-01-08T16:27:39.476Z,3.30
2019-01-08T16:30:09.086Z,3.30
2019-01-08T16:32:38.417Z,3.40
2019-01-08T16:35:09.381Z,3.40
2019-01-08T16:37:39.205Z,3.40
2019-01-08T16:40:09.247Z,3.40
2019-01-08T16:42:40.194Z,3.50
2019-01-08T16:45:10.520Z,3.50
2019-01-08T16:47:40.605Z,3.40
2019-01-08T16:50:10.168Z,3.30
2019-01-08T16:52:39.596Z,3.30
2019-01-08T16:55:09.333Z,3.30
2019-01-08T16:57:38.627Z,3.30
2019-01-08T17:00:09.961Z,3.30
2019-01-08T17:02:39.450Z,3.30
2019-01-08T17:05:09.185Z,3.30
2019-01-08T17:07:38.592Z,3.20
2019-01-08T17:10:08.602Z,3.20
2019-01-08T17:12:38.297Z,3.10
2019-01-08T17:15:08.899Z,3.00
2019-01-08T17:17:38.110Z,3.20
2019-01-08T17:20:09.645Z,3.30
2019-01-08T17:22:39.210Z,3.30
2019-01-08T17:25:09.796Z,3.50
2019-01-08T17:27:40.075Z,3.60
2019-01-08T17:30:09.952Z,3.60
2019-01-08T17:32:39.203Z,3.60
2019-01-08T17:35:09.592Z,3.60
2019-01-08T17:37:39.087Z,3.60
2019-01-08T17:40:08.737Z,3.70
2019-01-08T17:42:38.426Z,3.80
2019-01-08T17:45:09.046Z,3.80
2019-01-08T17:47:38.521Z,3.90
2019-01-08T17:50:08.313Z,3.90
2019-01-08T17:52:38.630Z,3.90
2019-01-08T17:55:08.241Z,3.90
2019-01-08T17:57:37.914Z,3.70
2019-01-08T18:00:08.580Z,3.60
2019-01-08T18:02:38.950Z,3.80
2019-01-08T18:05:08.744Z,3.80
2019-01-08T18:07:38.432Z,3.90
2019-01-08T18:10:08.379Z,4.00
2019-01-08T18:12:38.054Z,4.10
2019-01-08T18:15:08.078Z,4.20
2019-01-08T18:17:37.194Z,4.40
2019-01-08T18:20:07.373Z,4.40
2019-01-08T18:22:36.833Z,4.40
2019-01-08T18:25:07.242Z,4.60
2019-01-08T18:27:36.739Z,4.50
2019-01-08T18:30:06.988Z,4.60
2019-01-08T18:32:36.216Z,4.70
2019-01-08T18:35:05.574Z,4.90
2019-01-08T18:37:36.324Z,5.00
2019-01-08T18:40:06.054Z,5.00
2019-01-08T18:42:36.202Z,5.10
2019-01-08T18:45:06.515Z,5.20
2019-01-08T18:47:36.141Z,5.20
2019-01-08T18:50:05.835Z,5.20
2019-01-08T18:52:35.205Z,5.30
2019-01-08T18:55:04.634Z,5.40
2019-01-08T18:57:34.375Z,5.50
2019-01-08T19:00:03.906Z,5.60
2019-01-08T19:02:33.475Z,5.70
2019-01-08T19:05:03.175Z,5.90
2019-01-08T19:07:32.971Z,6.00
2019-01-08T19:10:03.665Z,6.10
2019-01-08T19:12:33.131Z,6.10
2019-01-08T19:15:02.622Z,6.20
2019-01-08T19:17:31.792Z,6.20
2019-01-08T19:20:01.938Z,6.10
2019-01-08T19:22:31.344Z,6.10
2019-01-08T19:25:00.755Z,6.10
2019-01-08T19:27:30.045Z,6.10
2019-01-08T19:29:59.143Z,6.20
2019-01-08T19:32:28.424Z,6.20
2019-01-08T19:34:57.965Z,6.10
2019-01-08T19:37:28.288Z,6.30
2019-01-08T19:39:57.372Z,6.30
2019-01-08T19:42:28.134Z,6.30
2019-01-08T19:44:57.544Z,6.40
2019-01-08T19:47:27.680Z,6.50
2019-01-08T19:49:57.200Z,6.50
2019-01-08T19:52:26.686Z,6.60
2019-01-08T19:54:57.830Z,6.70
2019-01-08T19:57:29.680Z,6.80
2019-01-08T19:59:59.096Z,6.70
2019-01-08T20:02:28.659Z,6.80
2019-01-08T20:04:58.339Z,6.80
2019-01-08T20:07:28.456Z,6.90
2019-01-08T20:09:59.120Z,6.90
2019-01-08T20:12:28.496Z,6.80
2019-01-08T20:14:58.069Z,6.70
2019-01-08T20:17:28.178Z,6.50
2019-01-08T20:19:58.711Z,6.50
2019-01-08T20:22:29.384Z,6.50
2019-01-08T20:24:59.267Z,6.60
2019-01-08T20:27:32.527Z,6.60
2019-01-08T20:30:01.524Z,6.60
2019-01-08T20:32:31.018Z,6.70
2019-01-08T20:35:00.608Z,6.80
2019-01-08T20:37:29.939Z,6.90
2019-01-08T20:39:59.638Z,7.00
2019-01-08T20:42:30.268Z,6.90
2019-01-08T20:44:59.754Z,6.90
2019-01-08T20:47:29.367Z,6.80
2019-01-08T20:49:58.540Z,6.90
2019-01-08T20:52:28.127Z,6.80
2019-01-08T20:54:58.549Z,6.70
2019-01-08T20:57:28.118Z,6.80
2019-01-08T20:59:58.798Z,7.00
2019-01-08T21:02:28.197Z,7.00
2019-01-08T21:04:57.517Z,7.10
2019-01-08T21:07:27.937Z,7.10
2019-01-08T21:09:57.435Z,7.20
2019-01-08T21:12:27.160Z,7.20
2019-01-08T21:14:57.131Z,7.10
2019-01-08T21:17:26.603Z,7.10
2019-01-08T21:19:56.132Z,7.00
2019-01-08T21:22:25.440Z,7.10
2019-01-08T21:24:55.825Z,7.10
2019-01-08T21:27:25.392Z,7.00
2019-01-08T21:29:55.807Z,6.90
2019-01-08T21:32:26.716Z,6.90
2019-01-08T21:34:56.179Z,7.00
2019-01-08T21:37:25.736Z,7.00
2019-01-08T21:39:55.800Z,6.90
2019-01-08T21:42:25.219Z,6.90
2019-01-08T21:44:54.679Z,7.00
2019-01-08T21:47:24.018Z,7.00
2019-01-08T21:49:53.255Z,7.10
2019-01-08T21:52:22.539Z,7.10
2019-01-08T21:54:52.130Z,7.10
2019-01-08T21:57:22.772Z,7.20
2019-01-08T21:59:52.288Z,7.10
2019-01-08T22:02:21.780Z,7.10
2019-01-08T22:04:53.134Z,7.10
2019-01-08T22:07:21.046Z,7.10
2019-01-08T22:09:51.045Z,7.20
2019-01-08T22:12:20.582Z,7.20
2019-01-08T22:14:50.780Z,7.20
2019-01-08T22:17:20.473Z,7.20
2019-01-08T22:19:50.015Z,7.20
2019-01-08T22:22:20.365Z,7.20
2019-01-08T22:24:50.790Z,7.20
2019-01-08T22:27:20.044Z,7.20
2019-01-08T22:29:48.945Z,7.10
2019-01-08T22:32:19.857Z,7.10
2019-01-08T22:34:49.568Z,7.10
2019-01-08T22:37:19.046Z,7.10
2019-01-08T22:39:48.628Z,7.10
2019-01-08T22:42:19.132Z,7.10
2019-01-08T22:44:48.681Z,7.10
2019-01-08T22:47:18.406Z,7.00
2019-01-08T22:49:47.800Z,7.10
2019-01-08T22:52:17.424Z,7.10
2019-01-08T22:54:47.967Z,7.10
2019-01-08T22:57:17.556Z,7.20
2019-01-08T22:59:47.161Z,7.10
2019-01-08T23:02:17.897Z,7.10
2019-01-08T23:04:47.376Z,7.00
2019-01-08T23:07:16.690Z,7.00
2019-01-08T23:09:45.763Z,7.00
2019-01-08T23:12:15.505Z,7.00
2019-01-08T23:14:45.832Z,6.90
2019-01-08T23:17:16.884Z,7.00
2019-01-08T23:19:47.804Z,6.90
2019-01-08T23:22:17.158Z,7.00
2019-01-08T23:24:46.701Z,6.90
2019-01-08T23:27:17.011Z,6.80
2019-01-08T23:29:46.451Z,6.80
2019-01-08T23:32:16.086Z,6.80
2019-01-08T23:34:46.419Z,6.80
2019-01-08T23:37:15.791Z,6.80
2019-01-08T23:39:45.158Z,6.70
2019-01-08T23:42:14.558Z,6.70
2019-01-08T23:44:44.739Z,6.60
2019-01-08T23:47:16.548Z,6.70
2019-01-08T23:49:46.199Z,6.60
2019-01-08T23:52:16.327Z,6.60
2019-01-08T23:54:46.197Z,6.60
2019-01-08T23:57:17.542Z,6.60
2019-01-08T23:59:47.610Z,6.60
